<?xml version="1.0" encoding="UTF-8" standalone="no" ?>
<gpx xmlns="http://www.topografix.com/GPX/1/1" xmlns:xsi="http://www.w3.org/2001/XMLSchema-instance" xsi:schemaLocation="http://www.topografix.com/GPX/1/1 http://www.topografix.com/GPX/1/1/gpx.xsd" version="1.1" creator="VisuGPX - https://www.visugpx.com">
  <metadata>
    <name>Tour de France 2019</name>
    <desc><![CDATA[4272km en 2 mois en tandem avec notre petit chien dans le panier avant]]></desc>
  </metadata>
  <trk>
    <name><![CDATA[Tracé 20191020-102107]]></name>
    <trkseg>
      <trkpt lat="42.13108" lon="8.703">
        <ele>11.97</ele>
        <time>2019-10-20T08:27:37Z</time>
      </trkpt>
      <trkpt lat="42.13073" lon="8.70491">
        <ele>10.755</ele>
        <time>2019-10-20T08:32:43Z</time>
      </trkpt>
      <trkpt lat="42.12985" lon="8.70545">
        <ele>8.981</ele>
        <time>2019-10-20T08:45:52Z</time>
      </trkpt>
      <trkpt lat="42.12852" lon="8.70506">
        <ele>8.676</ele>
        <time>2019-10-20T08:46:22Z</time>
      </trkpt>
      <trkpt lat="42.12708" lon="8.70482">
        <ele>10.892</ele>
        <time>2019-10-20T08:46:52Z</time>
      </trkpt>
      <trkpt lat="42.12559" lon="8.7042">
        <ele>8.113</ele>
        <time>2019-10-20T08:47:22Z</time>
      </trkpt>
      <trkpt lat="42.1241" lon="8.70368">
        <ele>5.931</ele>
        <time>2019-10-20T08:47:52Z</time>
      </trkpt>
      <trkpt lat="42.1226" lon="8.70315">
        <ele>4.313</ele>
        <time>2019-10-20T08:48:22Z</time>
      </trkpt>
      <trkpt lat="42.1212" lon="8.70273">
        <ele>3.077</ele>
        <time>2019-10-20T08:48:52Z</time>
      </trkpt>
      <trkpt lat="42.12016" lon="8.70149">
        <ele>2.736</ele>
        <time>2019-10-20T08:49:22Z</time>
      </trkpt>
      <trkpt lat="42.11863" lon="8.70119">
        <ele>0.834</ele>
        <time>2019-10-20T08:49:52Z</time>
      </trkpt>
      <trkpt lat="42.11707" lon="8.7012">
        <ele>9</ele>
        <time>2019-10-20T08:50:22Z</time>
      </trkpt>
      <trkpt lat="42.11562" lon="8.70131">
        <ele>7.2</ele>
        <time>2019-10-20T08:50:52Z</time>
      </trkpt>
      <trkpt lat="42.11418" lon="8.70163">
        <ele>7</ele>
        <time>2019-10-20T08:51:22Z</time>
      </trkpt>
      <trkpt lat="42.11291" lon="8.70189">
        <ele>5.151</ele>
        <time>2019-10-20T08:51:52Z</time>
      </trkpt>
      <trkpt lat="42.11148" lon="8.70168">
        <ele>4.598</ele>
        <time>2019-10-20T08:52:22Z</time>
      </trkpt>
      <trkpt lat="42.11053" lon="8.70199">
        <ele>5.334</ele>
        <time>2019-10-20T08:52:52Z</time>
      </trkpt>
      <trkpt lat="42.10985" lon="8.7021">
        <ele>16.233</ele>
        <time>2019-10-20T08:53:22Z</time>
      </trkpt>
      <trkpt lat="42.1091" lon="8.70219">
        <ele>18.966</ele>
        <time>2019-10-20T08:53:52Z</time>
      </trkpt>
      <trkpt lat="42.10786" lon="8.70195">
        <ele>15.78</ele>
        <time>2019-10-20T08:54:22Z</time>
      </trkpt>
      <trkpt lat="42.10628" lon="8.70198">
        <ele>10.803</ele>
        <time>2019-10-20T08:54:52Z</time>
      </trkpt>
      <trkpt lat="42.10524" lon="8.70327">
        <ele>12.893</ele>
        <time>2019-10-20T08:55:22Z</time>
      </trkpt>
      <trkpt lat="42.10456" lon="8.70467">
        <ele>14.658</ele>
        <time>2019-10-20T08:55:52Z</time>
      </trkpt>
      <trkpt lat="42.1041" lon="8.70709">
        <ele>10.806</ele>
        <time>2019-10-20T08:56:22Z</time>
      </trkpt>
      <trkpt lat="42.10236" lon="8.70725">
        <ele>8.903</ele>
        <time>2019-10-20T08:56:52Z</time>
      </trkpt>
      <trkpt lat="42.10097" lon="8.70797">
        <ele>5.845</ele>
        <time>2019-10-20T08:57:22Z</time>
      </trkpt>
      <trkpt lat="42.09966" lon="8.70879">
        <ele>8.437</ele>
        <time>2019-10-20T08:57:52Z</time>
      </trkpt>
      <trkpt lat="42.09842" lon="8.70982">
        <ele>8.017</ele>
        <time>2019-10-20T08:58:22Z</time>
      </trkpt>
      <trkpt lat="42.09706" lon="8.71037">
        <ele>8.148</ele>
        <time>2019-10-20T08:58:52Z</time>
      </trkpt>
      <trkpt lat="42.09579" lon="8.7108">
        <ele>8.849</ele>
        <time>2019-10-20T08:59:22Z</time>
      </trkpt>
      <trkpt lat="42.09455" lon="8.71065">
        <ele>9.571</ele>
        <time>2019-10-20T08:59:52Z</time>
      </trkpt>
      <trkpt lat="42.09362" lon="8.71017">
        <ele>12.272</ele>
        <time>2019-10-20T09:00:22Z</time>
      </trkpt>
      <trkpt lat="42.09285" lon="8.70962">
        <ele>17.497</ele>
        <time>2019-10-20T09:00:52Z</time>
      </trkpt>
      <trkpt lat="42.0922" lon="8.70877">
        <ele>21.969</ele>
        <time>2019-10-20T09:01:22Z</time>
      </trkpt>
      <trkpt lat="42.09086" lon="8.70812">
        <ele>18.826</ele>
        <time>2019-10-20T09:01:52Z</time>
      </trkpt>
      <trkpt lat="42.0894" lon="8.70906">
        <ele>19.809</ele>
        <time>2019-10-20T09:02:22Z</time>
      </trkpt>
      <trkpt lat="42.08845" lon="8.71081">
        <ele>16.106</ele>
        <time>2019-10-20T09:02:52Z</time>
      </trkpt>
      <trkpt lat="42.08761" lon="8.7126">
        <ele>7.301</ele>
        <time>2019-10-20T09:03:22Z</time>
      </trkpt>
      <trkpt lat="42.0867" lon="8.71459">
        <ele>4.064</ele>
        <time>2019-10-20T09:03:52Z</time>
      </trkpt>
      <trkpt lat="42.08575" lon="8.71662">
        <ele>2.658</ele>
        <time>2019-10-20T09:04:22Z</time>
      </trkpt>
      <trkpt lat="42.08434" lon="8.71769">
        <ele>1.144</ele>
        <time>2019-10-20T09:04:52Z</time>
      </trkpt>
      <trkpt lat="42.08299" lon="8.71822">
        <ele>1.5</ele>
        <time>2019-10-20T09:05:22Z</time>
      </trkpt>
      <trkpt lat="42.0816" lon="8.71878">
        <ele>0.816</ele>
        <time>2019-10-20T09:05:52Z</time>
      </trkpt>
      <trkpt lat="42.08025" lon="8.71933">
        <ele>1.784</ele>
        <time>2019-10-20T09:06:22Z</time>
      </trkpt>
      <trkpt lat="42.07886" lon="8.71987">
        <ele>1.197</ele>
        <time>2019-10-20T09:06:52Z</time>
      </trkpt>
      <trkpt lat="42.0775" lon="8.72041">
        <ele>2.076</ele>
        <time>2019-10-20T09:07:22Z</time>
      </trkpt>
      <trkpt lat="42.07607" lon="8.72097">
        <ele>0.805</ele>
        <time>2019-10-20T09:07:52Z</time>
      </trkpt>
      <trkpt lat="42.07462" lon="8.72153">
        <ele>3.7</ele>
        <time>2019-10-20T09:08:22Z</time>
      </trkpt>
      <trkpt lat="42.07312" lon="8.72212">
        <ele>1.41</ele>
        <time>2019-10-20T09:08:52Z</time>
      </trkpt>
      <trkpt lat="42.07159" lon="8.72265">
        <ele>2.124</ele>
        <time>2019-10-20T09:09:22Z</time>
      </trkpt>
      <trkpt lat="42.0701" lon="8.72232">
        <ele>4.326</ele>
        <time>2019-10-20T09:09:52Z</time>
      </trkpt>
      <trkpt lat="42.06868" lon="8.7219">
        <ele>3.985</ele>
        <time>2019-10-20T09:10:22Z</time>
      </trkpt>
      <trkpt lat="42.06726" lon="8.72178">
        <ele>3.874</ele>
        <time>2019-10-20T09:10:52Z</time>
      </trkpt>
      <trkpt lat="42.06609" lon="8.7212">
        <ele>8.973</ele>
        <time>2019-10-20T09:11:22Z</time>
      </trkpt>
      <trkpt lat="42.06514" lon="8.7211">
        <ele>9.965</ele>
        <time>2019-10-20T09:11:52Z</time>
      </trkpt>
      <trkpt lat="42.0643" lon="8.72158">
        <ele>13.949</ele>
        <time>2019-10-20T09:12:22Z</time>
      </trkpt>
      <trkpt lat="42.06405" lon="8.72287">
        <ele>15.655</ele>
        <time>2019-10-20T09:12:52Z</time>
      </trkpt>
      <trkpt lat="42.06411" lon="8.7245">
        <ele>16.512</ele>
        <time>2019-10-20T09:13:22Z</time>
      </trkpt>
      <trkpt lat="42.06432" lon="8.72638">
        <ele>15.914</ele>
        <time>2019-10-20T09:13:52Z</time>
      </trkpt>
      <trkpt lat="42.06452" lon="8.7283">
        <ele>15.339</ele>
        <time>2019-10-20T09:14:22Z</time>
      </trkpt>
      <trkpt lat="42.06476" lon="8.73028">
        <ele>13.36</ele>
        <time>2019-10-20T09:14:52Z</time>
      </trkpt>
      <trkpt lat="42.06514" lon="8.73231">
        <ele>14.004</ele>
        <time>2019-10-20T09:15:22Z</time>
      </trkpt>
      <trkpt lat="42.06618" lon="8.73406">
        <ele>14.477</ele>
        <time>2019-10-20T09:15:52.001Z</time>
      </trkpt>
      <trkpt lat="42.06619" lon="8.73623">
        <ele>13.764</ele>
        <time>2019-10-20T09:16:22.001Z</time>
      </trkpt>
      <trkpt lat="42.0658" lon="8.73842">
        <ele>10.732</ele>
        <time>2019-10-20T09:16:52.001Z</time>
      </trkpt>
      <trkpt lat="42.0646" lon="8.7395">
        <ele>12.424</ele>
        <time>2019-10-20T09:17:22.001Z</time>
      </trkpt>
      <trkpt lat="42.06348" lon="8.74009">
        <ele>11.285</ele>
        <time>2019-10-20T09:17:52.001Z</time>
      </trkpt>
      <trkpt lat="42.06246" lon="8.74079">
        <ele>15.457</ele>
        <time>2019-10-20T09:18:22.001Z</time>
      </trkpt>
      <trkpt lat="42.06185" lon="8.74208">
        <ele>17.6</ele>
        <time>2019-10-20T09:18:52.001Z</time>
      </trkpt>
      <trkpt lat="42.0611" lon="8.7432">
        <ele>17.59</ele>
        <time>2019-10-20T09:19:22.001Z</time>
      </trkpt>
      <trkpt lat="42.06015" lon="8.74408">
        <ele>17.854</ele>
        <time>2019-10-20T09:19:52.001Z</time>
      </trkpt>
      <trkpt lat="42.0594" lon="8.74524">
        <ele>19.998</ele>
        <time>2019-10-20T09:20:22.001Z</time>
      </trkpt>
      <trkpt lat="42.05863" lon="8.74606">
        <ele>23.743</ele>
        <time>2019-10-20T09:20:52.001Z</time>
      </trkpt>
      <trkpt lat="42.05776" lon="8.7449">
        <ele>25.911</ele>
        <time>2019-10-20T09:21:22.001Z</time>
      </trkpt>
      <trkpt lat="42.05634" lon="8.74505">
        <ele>23.585</ele>
        <time>2019-10-20T09:21:52.001Z</time>
      </trkpt>
      <trkpt lat="42.05477" lon="8.74531">
        <ele>21.775</ele>
        <time>2019-10-20T09:22:22.001Z</time>
      </trkpt>
      <trkpt lat="42.05337" lon="8.74559">
        <ele>18.886</ele>
        <time>2019-10-20T09:22:52.001Z</time>
      </trkpt>
      <trkpt lat="42.05191" lon="8.74649">
        <ele>17.571</ele>
        <time>2019-10-20T09:23:22.001Z</time>
      </trkpt>
      <trkpt lat="42.05106" lon="8.74838">
        <ele>15.97</ele>
        <time>2019-10-20T09:23:52.001Z</time>
      </trkpt>
      <trkpt lat="42.04971" lon="8.75008">
        <ele>12.665</ele>
        <time>2019-10-20T09:24:22.001Z</time>
      </trkpt>
      <trkpt lat="42.04861" lon="8.75305">
        <ele>5.246</ele>
        <time>2019-10-20T09:24:52.001Z</time>
      </trkpt>
      <trkpt lat="42.04723" lon="8.75437">
        <ele>3.945</ele>
        <time>2019-10-20T09:25:22.001Z</time>
      </trkpt>
      <trkpt lat="42.04627" lon="8.75371">
        <ele>11.197</ele>
        <time>2019-10-20T09:25:52.001Z</time>
      </trkpt>
      <trkpt lat="42.046" lon="8.75281">
        <ele>21.535</ele>
        <time>2019-10-20T09:26:22.001Z</time>
      </trkpt>
      <trkpt lat="42.04556" lon="8.75216">
        <ele>23.765</ele>
        <time>2019-10-20T09:26:52.001Z</time>
      </trkpt>
      <trkpt lat="42.04496" lon="8.75211">
        <ele>26.259</ele>
        <time>2019-10-20T09:27:22.001Z</time>
      </trkpt>
      <trkpt lat="42.04442" lon="8.75244">
        <ele>29.216</ele>
        <time>2019-10-20T09:27:52.001Z</time>
      </trkpt>
      <trkpt lat="42.04397" lon="8.75287">
        <ele>33.996</ele>
        <time>2019-10-20T09:28:22.001Z</time>
      </trkpt>
      <trkpt lat="42.04347" lon="8.75333">
        <ele>35.738</ele>
        <time>2019-10-20T09:28:52.001Z</time>
      </trkpt>
      <trkpt lat="42.04301" lon="8.75378">
        <ele>41.045</ele>
        <time>2019-10-20T09:29:22.001Z</time>
      </trkpt>
      <trkpt lat="42.04254" lon="8.7542">
        <ele>45.233</ele>
        <time>2019-10-20T09:29:52.001Z</time>
      </trkpt>
      <trkpt lat="42.042" lon="8.75447">
        <ele>52.376</ele>
        <time>2019-10-20T09:30:22.001Z</time>
      </trkpt>
      <trkpt lat="42.04148" lon="8.75459">
        <ele>56.06</ele>
        <time>2019-10-20T09:30:52.001Z</time>
      </trkpt>
      <trkpt lat="42.04092" lon="8.75473">
        <ele>60.546</ele>
        <time>2019-10-20T09:31:22.001Z</time>
      </trkpt>
      <trkpt lat="42.04038" lon="8.75491">
        <ele>67.75</ele>
        <time>2019-10-20T09:31:52.001Z</time>
      </trkpt>
      <trkpt lat="42.03989" lon="8.75529">
        <ele>68.106</ele>
        <time>2019-10-20T09:32:22.001Z</time>
      </trkpt>
      <trkpt lat="42.03942" lon="8.75578">
        <ele>67.156</ele>
        <time>2019-10-20T09:32:52.001Z</time>
      </trkpt>
      <trkpt lat="42.03895" lon="8.75626">
        <ele>71.352</ele>
        <time>2019-10-20T09:33:22.001Z</time>
      </trkpt>
      <trkpt lat="42.03844" lon="8.75648">
        <ele>76.134</ele>
        <time>2019-10-20T09:33:52.001Z</time>
      </trkpt>
      <trkpt lat="42.03803" lon="8.75608">
        <ele>83.912</ele>
        <time>2019-10-20T09:34:22.001Z</time>
      </trkpt>
      <trkpt lat="42.03806" lon="8.75542">
        <ele>88.5</ele>
        <time>2019-10-20T09:34:52.001Z</time>
      </trkpt>
      <trkpt lat="42.03828" lon="8.75476">
        <ele>92.412</ele>
        <time>2019-10-20T09:35:25.001Z</time>
      </trkpt>
      <trkpt lat="42.03819" lon="8.75409">
        <ele>97.08</ele>
        <time>2019-10-20T09:35:55.001Z</time>
      </trkpt>
      <trkpt lat="42.03797" lon="8.75345">
        <ele>100.547</ele>
        <time>2019-10-20T09:36:25.001Z</time>
      </trkpt>
      <trkpt lat="42.03758" lon="8.75293">
        <ele>104.354</ele>
        <time>2019-10-20T09:36:55.001Z</time>
      </trkpt>
      <trkpt lat="42.03713" lon="8.75252">
        <ele>108.175</ele>
        <time>2019-10-20T09:37:25.001Z</time>
      </trkpt>
      <trkpt lat="42.03654" lon="8.75242">
        <ele>112.906</ele>
        <time>2019-10-20T09:37:58.001Z</time>
      </trkpt>
      <trkpt lat="42.03601" lon="8.75282">
        <ele>115.33</ele>
        <time>2019-10-20T09:38:28.001Z</time>
      </trkpt>
      <trkpt lat="42.0358" lon="8.7535">
        <ele>117.069</ele>
        <time>2019-10-20T09:38:58.001Z</time>
      </trkpt>
      <trkpt lat="42.03565" lon="8.75428">
        <ele>121.138</ele>
        <time>2019-10-20T09:39:31.001Z</time>
      </trkpt>
      <trkpt lat="42.03544" lon="8.75501">
        <ele>125.187</ele>
        <time>2019-10-20T09:40:01.001Z</time>
      </trkpt>
      <trkpt lat="42.03497" lon="8.75551">
        <ele>128.28</ele>
        <time>2019-10-20T09:40:34.001Z</time>
      </trkpt>
      <trkpt lat="42.03446" lon="8.75586">
        <ele>131.18</ele>
        <time>2019-10-20T09:41:04.001Z</time>
      </trkpt>
      <trkpt lat="42.03399" lon="8.75619">
        <ele>137.919</ele>
        <time>2019-10-20T09:41:34.001Z</time>
      </trkpt>
      <trkpt lat="42.03371" lon="8.75673">
        <ele>139.117</ele>
        <time>2019-10-20T09:42:04.001Z</time>
      </trkpt>
      <trkpt lat="42.03373" lon="8.75745">
        <ele>142.32</ele>
        <time>2019-10-20T09:42:37.001Z</time>
      </trkpt>
      <trkpt lat="42.03408" lon="8.75799">
        <ele>148.283</ele>
        <time>2019-10-20T09:43:07.001Z</time>
      </trkpt>
      <trkpt lat="42.03438" lon="8.7586">
        <ele>153.32</ele>
        <time>2019-10-20T09:43:37.001Z</time>
      </trkpt>
      <trkpt lat="42.03449" lon="8.75931">
        <ele>154.383</ele>
        <time>2019-10-20T09:44:07.001Z</time>
      </trkpt>
      <trkpt lat="42.03458" lon="8.76">
        <ele>158.487</ele>
        <time>2019-10-20T09:44:37.001Z</time>
      </trkpt>
      <trkpt lat="42.03444" lon="8.76068">
        <ele>163.101</ele>
        <time>2019-10-20T09:45:07.001Z</time>
      </trkpt>
      <trkpt lat="42.03403" lon="8.76118">
        <ele>167.407</ele>
        <time>2019-10-20T09:45:37.001Z</time>
      </trkpt>
      <trkpt lat="42.03393" lon="8.76185">
        <ele>168.403</ele>
        <time>2019-10-20T09:46:07.001Z</time>
      </trkpt>
      <trkpt lat="42.03412" lon="8.76236">
        <ele>172.403</ele>
        <time>2019-10-20T09:53:01.001Z</time>
      </trkpt>
      <trkpt lat="42.03451" lon="8.76294">
        <ele>179.152</ele>
        <time>2019-10-20T09:53:31.001Z</time>
      </trkpt>
      <trkpt lat="42.03481" lon="8.76356">
        <ele>182.159</ele>
        <time>2019-10-20T09:54:01.001Z</time>
      </trkpt>
      <trkpt lat="42.03475" lon="8.76432">
        <ele>183.268</ele>
        <time>2019-10-20T09:54:31.001Z</time>
      </trkpt>
      <trkpt lat="42.03433" lon="8.76477">
        <ele>188.468</ele>
        <time>2019-10-20T09:55:01.001Z</time>
      </trkpt>
      <trkpt lat="42.03373" lon="8.76481">
        <ele>191.559</ele>
        <time>2019-10-20T09:55:34.001Z</time>
      </trkpt>
      <trkpt lat="42.03318" lon="8.7648">
        <ele>194.935</ele>
        <time>2019-10-20T09:56:04.001Z</time>
      </trkpt>
      <trkpt lat="42.0326" lon="8.76478">
        <ele>201.371</ele>
        <time>2019-10-20T09:56:34.001Z</time>
      </trkpt>
      <trkpt lat="42.03204" lon="8.76511">
        <ele>206.342</ele>
        <time>2019-10-20T09:57:04.001Z</time>
      </trkpt>
      <trkpt lat="42.03153" lon="8.76536">
        <ele>205.214</ele>
        <time>2019-10-20T09:57:34.001Z</time>
      </trkpt>
      <trkpt lat="42.03154" lon="8.76479">
        <ele>208.299</ele>
        <time>2019-10-20T09:58:04.001Z</time>
      </trkpt>
      <trkpt lat="42.03212" lon="8.76457">
        <ele>215.613</ele>
        <time>2019-10-20T09:58:34.001Z</time>
      </trkpt>
      <trkpt lat="42.03269" lon="8.76438">
        <ele>215.1</ele>
        <time>2019-10-20T09:59:04.001Z</time>
      </trkpt>
      <trkpt lat="42.03324" lon="8.7642">
        <ele>220.746</ele>
        <time>2019-10-20T09:59:34.001Z</time>
      </trkpt>
      <trkpt lat="42.03329" lon="8.76351">
        <ele>222.988</ele>
        <time>2019-10-20T10:00:04.001Z</time>
      </trkpt>
      <trkpt lat="42.03276" lon="8.76335">
        <ele>228.285</ele>
        <time>2019-10-20T10:00:34.001Z</time>
      </trkpt>
      <trkpt lat="42.03219" lon="8.7632">
        <ele>231.264</ele>
        <time>2019-10-20T10:01:04.001Z</time>
      </trkpt>
      <trkpt lat="42.03189" lon="8.76257">
        <ele>233.911</ele>
        <time>2019-10-20T10:01:34.001Z</time>
      </trkpt>
      <trkpt lat="42.03186" lon="8.76187">
        <ele>238.131</ele>
        <time>2019-10-20T10:02:04.001Z</time>
      </trkpt>
      <trkpt lat="42.03148" lon="8.76124">
        <ele>247.026</ele>
        <time>2019-10-20T10:02:40.001Z</time>
      </trkpt>
      <trkpt lat="42.03097" lon="8.76098">
        <ele>252.753</ele>
        <time>2019-10-20T10:03:10.001Z</time>
      </trkpt>
      <trkpt lat="42.03077" lon="8.7604">
        <ele>255.941</ele>
        <time>2019-10-20T10:03:40.001Z</time>
      </trkpt>
      <trkpt lat="42.03054" lon="8.75976">
        <ele>257.873</ele>
        <time>2019-10-20T10:04:10.001Z</time>
      </trkpt>
      <trkpt lat="42.02997" lon="8.75983">
        <ele>261.999</ele>
        <time>2019-10-20T10:04:43.001Z</time>
      </trkpt>
      <trkpt lat="42.02954" lon="8.75958">
        <ele>263.167</ele>
        <time>2019-10-20T10:05:13.001Z</time>
      </trkpt>
      <trkpt lat="42.02973" lon="8.75879">
        <ele>267.349</ele>
        <time>2019-10-20T10:05:52.001Z</time>
      </trkpt>
      <trkpt lat="42.0298" lon="8.75804">
        <ele>271.523</ele>
        <time>2019-10-20T10:06:22.001Z</time>
      </trkpt>
      <trkpt lat="42.02988" lon="8.75734">
        <ele>275.101</ele>
        <time>2019-10-20T10:06:52.001Z</time>
      </trkpt>
      <trkpt lat="42.03021" lon="8.75669">
        <ele>277.971</ele>
        <time>2019-10-20T10:07:25.001Z</time>
      </trkpt>
      <trkpt lat="42.03024" lon="8.75594">
        <ele>282.19</ele>
        <time>2019-10-20T10:07:55.001Z</time>
      </trkpt>
      <trkpt lat="42.02996" lon="8.75531">
        <ele>282.617</ele>
        <time>2019-10-20T10:08:25.001Z</time>
      </trkpt>
      <trkpt lat="42.02996" lon="8.75537">
        <ele>281.905</ele>
        <time>2019-10-20T10:14:07.001Z</time>
      </trkpt>
      <trkpt lat="42.02938" lon="8.75508">
        <ele>287.199</ele>
        <time>2019-10-20T10:14:40.001Z</time>
      </trkpt>
      <trkpt lat="42.02917" lon="8.7544">
        <ele>296.581</ele>
        <time>2019-10-20T10:15:10.001Z</time>
      </trkpt>
      <trkpt lat="42.02895" lon="8.75364">
        <ele>303.803</ele>
        <time>2019-10-20T10:15:43.001Z</time>
      </trkpt>
      <trkpt lat="42.0287" lon="8.75294">
        <ele>305.765</ele>
        <time>2019-10-20T10:16:13.001Z</time>
      </trkpt>
      <trkpt lat="42.02855" lon="8.75221">
        <ele>305.674</ele>
        <time>2019-10-20T10:16:43.001Z</time>
      </trkpt>
      <trkpt lat="42.02806" lon="8.75171">
        <ele>307.5</ele>
        <time>2019-10-20T10:17:13.001Z</time>
      </trkpt>
      <trkpt lat="42.02748" lon="8.75152">
        <ele>312.455</ele>
        <time>2019-10-20T10:17:43.001Z</time>
      </trkpt>
      <trkpt lat="42.02729" lon="8.75085">
        <ele>319.788</ele>
        <time>2019-10-20T10:18:13.001Z</time>
      </trkpt>
      <trkpt lat="42.02696" lon="8.75019">
        <ele>317.762</ele>
        <time>2019-10-20T10:18:43.001Z</time>
      </trkpt>
      <trkpt lat="42.02639" lon="8.74995">
        <ele>322.634</ele>
        <time>2019-10-20T10:19:13.001Z</time>
      </trkpt>
      <trkpt lat="42.02611" lon="8.74934">
        <ele>323.98</ele>
        <time>2019-10-20T10:19:43.001Z</time>
      </trkpt>
      <trkpt lat="42.02618" lon="8.74851">
        <ele>332.964</ele>
        <time>2019-10-20T10:20:19.001Z</time>
      </trkpt>
      <trkpt lat="42.02635" lon="8.74769">
        <ele>335.52</ele>
        <time>2019-10-20T10:20:49.001Z</time>
      </trkpt>
      <trkpt lat="42.02605" lon="8.74704">
        <ele>331.169</ele>
        <time>2019-10-20T10:21:19.001Z</time>
      </trkpt>
      <trkpt lat="42.02557" lon="8.74666">
        <ele>334.519</ele>
        <time>2019-10-20T10:21:49.001Z</time>
      </trkpt>
      <trkpt lat="42.02506" lon="8.74642">
        <ele>339.212</ele>
        <time>2019-10-20T10:22:19.001Z</time>
      </trkpt>
      <trkpt lat="42.02452" lon="8.74624">
        <ele>343.682</ele>
        <time>2019-10-20T10:22:49.001Z</time>
      </trkpt>
      <trkpt lat="42.02444" lon="8.7459">
        <ele>345.281</ele>
        <time>2019-10-20T10:25:19.001Z</time>
      </trkpt>
      <trkpt lat="42.02433" lon="8.74517">
        <ele>343.88</ele>
        <time>2019-10-20T10:25:55.001Z</time>
      </trkpt>
      <trkpt lat="42.02417" lon="8.74444">
        <ele>351.196</ele>
        <time>2019-10-20T10:26:25.001Z</time>
      </trkpt>
      <trkpt lat="42.02363" lon="8.74411">
        <ele>355.981</ele>
        <time>2019-10-20T10:26:55.001Z</time>
      </trkpt>
      <trkpt lat="42.02311" lon="8.74365">
        <ele>355.992</ele>
        <time>2019-10-20T10:27:25.001Z</time>
      </trkpt>
      <trkpt lat="42.0228" lon="8.74304">
        <ele>360.463</ele>
        <time>2019-10-20T10:27:55.001Z</time>
      </trkpt>
      <trkpt lat="42.02262" lon="8.74229">
        <ele>365.837</ele>
        <time>2019-10-20T10:28:25.001Z</time>
      </trkpt>
      <trkpt lat="42.0222" lon="8.74181">
        <ele>368.542</ele>
        <time>2019-10-20T10:28:55.001Z</time>
      </trkpt>
      <trkpt lat="42.02175" lon="8.74135">
        <ele>372.096</ele>
        <time>2019-10-20T10:29:25.001Z</time>
      </trkpt>
      <trkpt lat="42.02192" lon="8.74073">
        <ele>381.494</ele>
        <time>2019-10-20T10:29:55.001Z</time>
      </trkpt>
      <trkpt lat="42.02211" lon="8.73997">
        <ele>383.274</ele>
        <time>2019-10-20T10:30:25.001Z</time>
      </trkpt>
      <trkpt lat="42.02179" lon="8.73929">
        <ele>384.552</ele>
        <time>2019-10-20T10:30:55.001Z</time>
      </trkpt>
      <trkpt lat="42.02144" lon="8.73863">
        <ele>387.879</ele>
        <time>2019-10-20T10:31:25.001Z</time>
      </trkpt>
      <trkpt lat="42.02126" lon="8.73791">
        <ele>389.864</ele>
        <time>2019-10-20T10:31:55.001Z</time>
      </trkpt>
      <trkpt lat="42.02116" lon="8.73716">
        <ele>392.466</ele>
        <time>2019-10-20T10:32:25.001Z</time>
      </trkpt>
      <trkpt lat="42.02151" lon="8.73661">
        <ele>396.934</ele>
        <time>2019-10-20T10:32:55.001Z</time>
      </trkpt>
      <trkpt lat="42.02165" lon="8.73591">
        <ele>402.767</ele>
        <time>2019-10-20T10:33:25.001Z</time>
      </trkpt>
      <trkpt lat="42.02193" lon="8.73532">
        <ele>408.557</ele>
        <time>2019-10-20T10:33:55.001Z</time>
      </trkpt>
      <trkpt lat="42.02217" lon="8.73472">
        <ele>408.432</ele>
        <time>2019-10-20T10:34:25.001Z</time>
      </trkpt>
      <trkpt lat="42.02173" lon="8.73414">
        <ele>408.643</ele>
        <time>2019-10-20T10:34:58.001Z</time>
      </trkpt>
      <trkpt lat="42.0211" lon="8.7339">
        <ele>405.482</ele>
        <time>2019-10-20T10:40:37.001Z</time>
      </trkpt>
      <trkpt lat="42.01995" lon="8.7333">
        <ele>403.189</ele>
        <time>2019-10-20T10:41:07.001Z</time>
      </trkpt>
      <trkpt lat="42.01786" lon="8.73094">
        <ele>392.901</ele>
        <time>2019-10-20T10:41:37.001Z</time>
      </trkpt>
      <trkpt lat="42.01594" lon="8.72949">
        <ele>364.626</ele>
        <time>2019-10-20T10:42:07.001Z</time>
      </trkpt>
      <trkpt lat="42.01394" lon="8.73214">
        <ele>340.513</ele>
        <time>2019-10-20T10:42:37.001Z</time>
      </trkpt>
      <trkpt lat="42.01448" lon="8.73565">
        <ele>317.99</ele>
        <time>2019-10-20T10:43:07.001Z</time>
      </trkpt>
      <trkpt lat="42.01274" lon="8.73833">
        <ele>297.119</ele>
        <time>2019-10-20T10:43:37.001Z</time>
      </trkpt>
      <trkpt lat="42.01043" lon="8.73944">
        <ele>282.283</ele>
        <time>2019-10-20T10:44:07.001Z</time>
      </trkpt>
      <trkpt lat="42.0107" lon="8.74277">
        <ele>262.495</ele>
        <time>2019-10-20T10:44:37.001Z</time>
      </trkpt>
      <trkpt lat="42.01068" lon="8.74701">
        <ele>242.92</ele>
        <time>2019-10-20T10:45:07.001Z</time>
      </trkpt>
      <trkpt lat="42.0087" lon="8.74916">
        <ele>223.22</ele>
        <time>2019-10-20T10:45:37.001Z</time>
      </trkpt>
      <trkpt lat="42.00647" lon="8.74617">
        <ele>206.729</ele>
        <time>2019-10-20T10:46:07.001Z</time>
      </trkpt>
      <trkpt lat="42.00613" lon="8.74369">
        <ele>206.034</ele>
        <time>2019-10-20T10:46:37.001Z</time>
      </trkpt>
      <trkpt lat="42.00506" lon="8.74313">
        <ele>212.533</ele>
        <time>2019-10-20T10:47:07.001Z</time>
      </trkpt>
      <trkpt lat="42.00441" lon="8.74435">
        <ele>214.323</ele>
        <time>2019-10-20T10:47:37.001Z</time>
      </trkpt>
      <trkpt lat="42.00348" lon="8.74495">
        <ele>217.188</ele>
        <time>2019-10-20T10:48:07.001Z</time>
      </trkpt>
      <trkpt lat="42.00359" lon="8.74616">
        <ele>216.773</ele>
        <time>2019-10-20T10:48:37.001Z</time>
      </trkpt>
      <trkpt lat="42.00436" lon="8.74742">
        <ele>217.72</ele>
        <time>2019-10-20T10:49:07.001Z</time>
      </trkpt>
      <trkpt lat="42.00413" lon="8.74878">
        <ele>218.879</ele>
        <time>2019-10-20T10:49:37.001Z</time>
      </trkpt>
      <trkpt lat="42.00356" lon="8.75">
        <ele>222.817</ele>
        <time>2019-10-20T10:50:07.001Z</time>
      </trkpt>
      <trkpt lat="42.0035" lon="8.75123">
        <ele>226.268</ele>
        <time>2019-10-20T10:50:37.001Z</time>
      </trkpt>
      <trkpt lat="42.00378" lon="8.75258">
        <ele>229.104</ele>
        <time>2019-10-20T10:51:07.001Z</time>
      </trkpt>
      <trkpt lat="42.0037" lon="8.75401">
        <ele>226.704</ele>
        <time>2019-10-20T10:51:37.001Z</time>
      </trkpt>
      <trkpt lat="42.00339" lon="8.75527">
        <ele>225.749</ele>
        <time>2019-10-20T10:52:07.001Z</time>
      </trkpt>
      <trkpt lat="42.00259" lon="8.75592">
        <ele>228.385</ele>
        <time>2019-10-20T10:52:37.001Z</time>
      </trkpt>
      <trkpt lat="42.00169" lon="8.7559">
        <ele>229.526</ele>
        <time>2019-10-20T10:53:07.001Z</time>
      </trkpt>
      <trkpt lat="42.00054" lon="8.75643">
        <ele>227.066</ele>
        <time>2019-10-20T10:53:37.001Z</time>
      </trkpt>
      <trkpt lat="41.99782" lon="8.75658">
        <ele>211.732</ele>
        <time>2019-10-20T10:54:07.001Z</time>
      </trkpt>
      <trkpt lat="41.99469" lon="8.75851">
        <ele>184.801</ele>
        <time>2019-10-20T10:54:37.001Z</time>
      </trkpt>
      <trkpt lat="41.99284" lon="8.7631">
        <ele>159.024</ele>
        <time>2019-10-20T10:55:07.001Z</time>
      </trkpt>
      <trkpt lat="41.99117" lon="8.76798">
        <ele>128.276</ele>
        <time>2019-10-20T10:55:37.001Z</time>
      </trkpt>
      <trkpt lat="41.98877" lon="8.77067">
        <ele>114.269</ele>
        <time>2019-10-20T10:56:07.001Z</time>
      </trkpt>
      <trkpt lat="41.98689" lon="8.77281">
        <ele>108.326</ele>
        <time>2019-10-20T10:56:37.001Z</time>
      </trkpt>
      <trkpt lat="41.98521" lon="8.77432">
        <ele>105.881</ele>
        <time>2019-10-20T10:57:07.001Z</time>
      </trkpt>
      <trkpt lat="41.98366" lon="8.77567">
        <ele>102.979</ele>
        <time>2019-10-20T10:57:37.001Z</time>
      </trkpt>
      <trkpt lat="41.98237" lon="8.77672">
        <ele>102.692</ele>
        <time>2019-10-20T10:58:07.001Z</time>
      </trkpt>
      <trkpt lat="41.9816" lon="8.77739">
        <ele>99.594</ele>
        <time>2019-10-20T11:01:13.001Z</time>
      </trkpt>
      <trkpt lat="41.98018" lon="8.77823">
        <ele>94.736</ele>
        <time>2019-10-20T11:01:43.001Z</time>
      </trkpt>
      <trkpt lat="41.97869" lon="8.77904">
        <ele>93.258</ele>
        <time>2019-10-20T11:02:13.001Z</time>
      </trkpt>
      <trkpt lat="41.97721" lon="8.7798">
        <ele>95.314</ele>
        <time>2019-10-20T11:02:43.001Z</time>
      </trkpt>
      <trkpt lat="41.97578" lon="8.78066">
        <ele>94.482</ele>
        <time>2019-10-20T11:03:13.001Z</time>
      </trkpt>
      <trkpt lat="41.9743" lon="8.78086">
        <ele>95.424</ele>
        <time>2019-10-20T11:03:43.001Z</time>
      </trkpt>
      <trkpt lat="41.97303" lon="8.77993">
        <ele>92.545</ele>
        <time>2019-10-20T11:04:13.001Z</time>
      </trkpt>
      <trkpt lat="41.97227" lon="8.77951">
        <ele>98.608</ele>
        <time>2019-10-20T11:04:43.001Z</time>
      </trkpt>
      <trkpt lat="41.97159" lon="8.77925">
        <ele>105.699</ele>
        <time>2019-10-20T11:05:13.001Z</time>
      </trkpt>
      <trkpt lat="41.9703" lon="8.77869">
        <ele>101.22</ele>
        <time>2019-10-20T11:05:43.001Z</time>
      </trkpt>
      <trkpt lat="41.96799" lon="8.77925">
        <ele>88.756</ele>
        <time>2019-10-20T11:06:13.001Z</time>
      </trkpt>
      <trkpt lat="41.96566" lon="8.78018">
        <ele>82.323</ele>
        <time>2019-10-20T11:06:43.001Z</time>
      </trkpt>
      <trkpt lat="41.96342" lon="8.7815">
        <ele>74.632</ele>
        <time>2019-10-20T11:07:13.001Z</time>
      </trkpt>
      <trkpt lat="41.96075" lon="8.78023">
        <ele>56.707</ele>
        <time>2019-10-20T11:07:43.001Z</time>
      </trkpt>
      <trkpt lat="41.95814" lon="8.78093">
        <ele>52.077</ele>
        <time>2019-10-20T11:08:13.001Z</time>
      </trkpt>
      <trkpt lat="41.95643" lon="8.78206">
        <ele>48.502</ele>
        <time>2019-10-20T11:08:43.001Z</time>
      </trkpt>
      <trkpt lat="41.955" lon="8.78378">
        <ele>48.071</ele>
        <time>2019-10-20T11:09:13.001Z</time>
      </trkpt>
      <trkpt lat="41.9531" lon="8.78352">
        <ele>41.344</ele>
        <time>2019-10-20T11:09:43.001Z</time>
      </trkpt>
      <trkpt lat="41.95247" lon="8.78277">
        <ele>38.469</ele>
        <time>2019-10-20T11:10:13.001Z</time>
      </trkpt>
      <trkpt lat="41.95119" lon="8.78156">
        <ele>37.725</ele>
        <time>2019-10-20T11:10:43.001Z</time>
      </trkpt>
      <trkpt lat="41.95118" lon="8.78007">
        <ele>43.047</ele>
        <time>2019-10-20T11:11:13.001Z</time>
      </trkpt>
      <trkpt lat="41.95094" lon="8.77858">
        <ele>45.699</ele>
        <time>2019-10-20T11:11:43.001Z</time>
      </trkpt>
      <trkpt lat="41.95057" lon="8.77747">
        <ele>49.382</ele>
        <time>2019-10-20T11:12:13.001Z</time>
      </trkpt>
      <trkpt lat="41.95019" lon="8.77645">
        <ele>50.27</ele>
        <time>2019-10-20T11:12:43.001Z</time>
      </trkpt>
      <trkpt lat="41.9497" lon="8.77598">
        <ele>53.606</ele>
        <time>2019-10-20T11:13:13.001Z</time>
      </trkpt>
      <trkpt lat="41.94922" lon="8.7753">
        <ele>64.391</ele>
        <time>2019-10-20T11:13:43.001Z</time>
      </trkpt>
      <trkpt lat="41.94887" lon="8.77484">
        <ele>65.808</ele>
        <time>2019-10-20T11:14:13.001Z</time>
      </trkpt>
      <trkpt lat="41.94904" lon="8.77509">
        <ele>65.059</ele>
        <time>2019-10-20T11:20:13.001Z</time>
      </trkpt>
      <trkpt lat="41.94999" lon="8.77423">
        <ele>65.292</ele>
        <time>2019-10-20T11:20:43.001Z</time>
      </trkpt>
      <trkpt lat="41.95082" lon="8.77288">
        <ele>70</ele>
        <time>2019-10-20T11:21:13.001Z</time>
      </trkpt>
      <trkpt lat="41.95031" lon="8.772">
        <ele>66.256</ele>
        <time>2019-10-20T11:21:43.001Z</time>
      </trkpt>
      <trkpt lat="41.94998" lon="8.771">
        <ele>68.672</ele>
        <time>2019-10-20T11:22:13.001Z</time>
      </trkpt>
      <trkpt lat="41.94947" lon="8.7685">
        <ele>64.658</ele>
        <time>2019-10-20T11:22:43.001Z</time>
      </trkpt>
      <trkpt lat="41.94835" lon="8.7656">
        <ele>50.952</ele>
        <time>2019-10-20T11:23:13.001Z</time>
      </trkpt>
      <trkpt lat="41.94721" lon="8.76256">
        <ele>41.048</ele>
        <time>2019-10-20T11:23:43.001Z</time>
      </trkpt>
      <trkpt lat="41.94566" lon="8.75963">
        <ele>30.786</ele>
        <time>2019-10-20T11:24:13.001Z</time>
      </trkpt>
      <trkpt lat="41.94485" lon="8.75721">
        <ele>22.998</ele>
        <time>2019-10-20T11:24:43.001Z</time>
      </trkpt>
      <trkpt lat="41.94438" lon="8.75613">
        <ele>25.673</ele>
        <time>2019-10-20T11:25:13.001Z</time>
      </trkpt>
      <trkpt lat="41.944" lon="8.75515">
        <ele>28.474</ele>
        <time>2019-10-20T11:25:43.001Z</time>
      </trkpt>
      <trkpt lat="41.94351" lon="8.75396">
        <ele>30.157</ele>
        <time>2019-10-20T11:26:13.001Z</time>
      </trkpt>
      <trkpt lat="41.94271" lon="8.7519">
        <ele>28.015</ele>
        <time>2019-10-20T11:26:43.001Z</time>
      </trkpt>
      <trkpt lat="41.94227" lon="8.75028">
        <ele>30.122</ele>
        <time>2019-10-20T11:27:13.001Z</time>
      </trkpt>
      <trkpt lat="41.94192" lon="8.74874">
        <ele>32.671</ele>
        <time>2019-10-20T11:27:43.001Z</time>
      </trkpt>
      <trkpt lat="41.94128" lon="8.74659">
        <ele>27.705</ele>
        <time>2019-10-20T11:28:13.001Z</time>
      </trkpt>
      <trkpt lat="41.94007" lon="8.74592">
        <ele>23.192</ele>
        <time>2019-10-20T11:28:43.001Z</time>
      </trkpt>
      <trkpt lat="41.9384" lon="8.74517">
        <ele>19.627</ele>
        <time>2019-10-20T11:29:13.001Z</time>
      </trkpt>
      <trkpt lat="41.93702" lon="8.74466">
        <ele>17.211</ele>
        <time>2019-10-20T11:29:43.001Z</time>
      </trkpt>
      <trkpt lat="41.93581" lon="8.74442">
        <ele>19.055</ele>
        <time>2019-10-20T11:30:13.001Z</time>
      </trkpt>
      <trkpt lat="41.93468" lon="8.7453">
        <ele>14.182</ele>
        <time>2019-10-20T11:30:43.001Z</time>
      </trkpt>
      <trkpt lat="41.93404" lon="8.74495">
        <ele>0.98</ele>
        <time>2019-10-20T11:31:16Z</time>
      </trkpt>
      <trkpt lat="41.93343" lon="8.74351">
        <ele>2.7</ele>
        <time>2019-10-20T11:31:49.001Z</time>
      </trkpt>
      <trkpt lat="41.93285" lon="8.74194">
        <ele>1.066</ele>
        <time>2019-10-20T11:32:19.001Z</time>
      </trkpt>
      <trkpt lat="41.9322" lon="8.7405">
        <ele>3.17</ele>
        <time>2019-10-20T11:32:49.001Z</time>
      </trkpt>
      <trkpt lat="41.93109" lon="8.73974">
        <ele>4.709</ele>
        <time>2019-10-20T11:33:19.001Z</time>
      </trkpt>
      <trkpt lat="41.92998" lon="8.73933">
        <ele>6.887</ele>
        <time>2019-10-20T11:33:49.001Z</time>
      </trkpt>
      <trkpt lat="41.92903" lon="8.73892">
        <ele>5.015</ele>
        <time>2019-10-20T11:34:19.001Z</time>
      </trkpt>
      <trkpt lat="41.92812" lon="8.73871">
        <ele>7.298</ele>
        <time>2019-10-20T11:34:49.001Z</time>
      </trkpt>
      <trkpt lat="41.92718" lon="8.73849">
        <ele>8.923</ele>
        <time>2019-10-20T11:35:19.001Z</time>
      </trkpt>
      <trkpt lat="41.92642" lon="8.73834">
        <ele>10.511</ele>
        <time>2019-10-20T11:35:49.001Z</time>
      </trkpt>
      <trkpt lat="41.92643" lon="8.73825">
        <ele>9.945</ele>
        <time>2019-10-20T11:36:49.001Z</time>
      </trkpt>
      <trkpt lat="41.92598" lon="8.7382">
        <ele>9.321</ele>
        <time>2019-10-20T11:37:55.001Z</time>
      </trkpt>
      <trkpt lat="41.92526" lon="8.73824">
        <ele>11.186</ele>
        <time>2019-10-20T11:42:50.001Z</time>
      </trkpt>
    </trkseg>
  </trk>
</gpx>